Terminal Aerodrome Forecast
Issued by NWS Northern Indiana

Home | Current Version | Previous Version | Text Only | Print | Product List | Glossary Off
Versions: 1 2 3 4 5 6 7 8 9 10 11 12 13 14 15 16 17 18

000
FTUS43 KIWX 181120
TAFFWA
TAF
KFWA 181120Z 1812/1912 26012KT 5SM -DZ BR OVC006
      TEMPO 1812/1815 2SM BR OVC004
     FM181500 25010KT P6SM OVC008
     FM182000 24010KT P6SM OVC012
     FM182300 23008KT P6SM BKN020
     FM190200 22005KT P6SM SCT020=

USA.gov is the U.S. government's official web portal to all federal, state and local government web resources and services.